createdAt,value
2019-02-11T00:01:20.652Z,0.85
2019-02-11T00:03:58.192Z,0.70
2019-02-11T00:06:22.779Z,1.10
2019-02-11T00:08:52.189Z,1.75
2019-02-11T00:11:22.347Z,0.60
2019-02-11T00:13:52.525Z,0.80
2019-02-11T00:16:22.004Z,1.00
2019-02-11T00:18:51.960Z,0.50
2019-02-11T00:21:21.473Z,1.87
2019-02-11T00:23:50.936Z,1.30
2019-02-11T00:26:21.158Z,0.60
2019-02-11T00:28:50.993Z,0.60
2019-02-11T00:31:20.819Z,0.53
2019-02-11T00:33:50.324Z,1.25
2019-02-11T00:36:20.737Z,0.80
2019-02-11T00:38:50.634Z,1.27
2019-02-11T00:41:20.059Z,1.30
2019-02-11T00:43:50.234Z,2.35
2019-02-11T00:46:20.373Z,1.17
2019-02-11T00:48:50.855Z,1.82
2019-02-11T00:51:20.735Z,2.65
2019-02-11T00:53:50.632Z,1.40
2019-02-11T00:56:20.764Z,1.40
2019-02-11T00:58:50.942Z,1.85
2019-02-11T01:01:21.480Z,1.17
2019-02-11T01:03:51.332Z,1.40
2019-02-11T01:06:21.213Z,2.33
2019-02-11T01:08:51.007Z,1.65
2019-02-11T01:11:21.188Z,2.45
2019-02-11T01:13:51.704Z,2.92
2019-02-11T01:16:22.136Z,3.15
2019-02-11T01:18:52.343Z,2.05
2019-02-11T01:21:22.160Z,2.58
2019-02-11T01:23:52.640Z,1.25
2019-02-11T01:26:22.412Z,1.98
2019-02-11T01:28:52.236Z,1.17
2019-02-11T01:31:22.709Z,2.35
2019-02-11T01:33:52.509Z,3.83
2019-02-11T01:36:22.570Z,2.00
2019-02-11T01:38:54.462Z,1.62
2019-02-11T01:41:24.285Z,2.08
2019-02-11T01:43:54.059Z,2.55
2019-02-11T01:46:24.238Z,3.17
2019-02-11T01:48:54.923Z,2.22
2019-02-11T01:51:25.010Z,2.27
2019-02-11T01:53:54.496Z,2.62
2019-02-11T01:56:25.023Z,3.20
2019-02-11T01:58:55.053Z,2.10
2019-02-11T02:01:24.906Z,3.72
2019-02-11T02:03:54.807Z,3.52
2019-02-11T02:06:24.552Z,2.58
2019-02-11T02:08:54.650Z,2.50
2019-02-11T02:11:24.834Z,5.45
2019-02-11T02:13:54.949Z,3.70
2019-02-11T02:16:24.895Z,3.27
2019-02-11T02:18:55.154Z,3.72
2019-02-11T02:21:25.248Z,4.12
2019-02-11T02:23:54.947Z,4.70
2019-02-11T02:26:26.620Z,2.77
2019-02-11T02:28:56.425Z,2.65
2019-02-11T02:31:26.832Z,3.65
2019-02-11T02:33:56.950Z,4.72
2019-02-11T02:36:27.446Z,2.92
2019-02-11T02:38:56.905Z,2.15
2019-02-11T02:41:27.034Z,3.35
2019-02-11T02:43:56.887Z,2.67
2019-02-11T02:46:27.120Z,3.75
2019-02-11T02:48:56.589Z,4.12
2019-02-11T02:51:27.126Z,2.70
2019-02-11T02:53:57.294Z,2.42
2019-02-11T02:56:27.525Z,5.53
2019-02-11T02:58:57.631Z,5.53
2019-02-11T03:01:27.850Z,5.45
2019-02-11T03:03:57.675Z,3.00
2019-02-11T03:06:27.518Z,3.30
2019-02-11T03:08:58.023Z,5.03
2019-02-11T03:11:27.598Z,3.62
2019-02-11T03:14:05.408Z,2.37
2019-02-11T03:16:29.616Z,2.52
2019-02-11T03:18:59.730Z,2.62
2019-02-11T03:21:29.944Z,2.25
2019-02-11T03:23:59.437Z,2.45
2019-02-11T03:26:29.559Z,4.15
2019-02-11T03:28:59.283Z,1.95
2019-02-11T03:31:29.793Z,3.35
2019-02-11T03:33:59.741Z,4.47
2019-02-11T03:36:29.867Z,3.17
2019-02-11T03:39:00.063Z,1.90
2019-02-11T03:41:30.283Z,2.00
2019-02-11T03:43:59.709Z,3.22
2019-02-11T03:46:29.515Z,2.00
2019-02-11T03:48:59.649Z,1.70
2019-02-11T03:51:29.428Z,1.70
2019-02-11T03:53:59.977Z,3.80
2019-02-11T03:56:30.145Z,3.50
2019-02-11T03:59:00.259Z,2.27
2019-02-11T04:01:30.328Z,3.70
2019-02-11T04:04:00.772Z,4.05
2019-02-11T04:06:30.546Z,3.42
2019-02-11T04:09:00.279Z,4.70
2019-02-11T04:11:30.398Z,3.58
2019-02-11T04:14:00.582Z,2.45
2019-02-11T04:16:30.726Z,5.45
2019-02-11T04:19:00.529Z,4.17
2019-02-11T04:21:30.667Z,2.67
2019-02-11T04:24:00.063Z,3.25
2019-02-11T04:26:32.544Z,3.33
2019-02-11T04:29:02.426Z,2.98
2019-02-11T04:31:32.264Z,6.67
2019-02-11T04:34:02.477Z,2.58
2019-02-11T04:36:32.591Z,4.40
2019-02-11T04:39:02.676Z,3.30
2019-02-11T04:41:32.514Z,4.70
2019-02-11T04:44:02.927Z,3.15
2019-02-11T04:46:32.776Z,4.08
2019-02-11T04:49:02.351Z,4.17
2019-02-11T04:51:32.598Z,3.42
2019-02-11T04:54:02.743Z,2.80
2019-02-11T04:56:32.838Z,3.50
2019-02-11T04:59:02.599Z,5.37
2019-02-11T05:01:32.774Z,6.58
2019-02-11T05:04:03.255Z,3.80
2019-02-11T05:06:33.769Z,3.98
2019-02-11T05:09:04.992Z,4.75
2019-02-11T05:11:34.892Z,4.65
2019-02-11T05:14:04.402Z,4.40
2019-02-11T05:16:34.955Z,3.77
2019-02-11T05:19:05.865Z,2.40
2019-02-11T05:21:35.672Z,9.10
2019-02-11T05:24:05.732Z,1.87
2019-02-11T05:26:36.361Z,2.22
2019-02-11T05:29:05.862Z,3.98
2019-02-11T05:31:36.042Z,4.05
2019-02-11T05:34:05.147Z,4.92
2019-02-11T05:36:34.955Z,6.55
2019-02-11T05:39:06.411Z,5.08
2019-02-11T05:41:36.351Z,2.37
2019-02-11T05:44:06.530Z,4.17
2019-02-11T05:46:36.011Z,6.53
2019-02-11T05:49:06.365Z,3.25
2019-02-11T05:51:36.104Z,5.80
2019-02-11T05:54:06.299Z,2.30
2019-02-11T05:56:35.783Z,4.15
2019-02-11T05:59:05.914Z,5.53
2019-02-11T06:01:35.994Z,6.12
2019-02-11T06:04:05.896Z,2.22
2019-02-11T06:06:35.685Z,6.50
2019-02-11T06:09:06.645Z,6.62
2019-02-11T06:11:36.753Z,4.70
2019-02-11T06:14:06.186Z,6.20
2019-02-11T06:16:41.200Z,4.92
2019-02-11T06:19:11.715Z,5.08
2019-02-11T06:21:41.947Z,3.47
2019-02-11T06:24:12.469Z,3.95
2019-02-11T06:26:41.941Z,5.37
2019-02-11T06:29:11.803Z,4.53
2019-02-11T06:31:41.367Z,5.58
2019-02-11T06:34:11.179Z,4.60
2019-02-11T06:36:45.552Z,2.80
2019-02-11T06:39:15.458Z,3.70
2019-02-11T06:41:45.221Z,4.42
2019-02-11T06:44:15.119Z,4.72
2019-02-11T06:46:48.137Z,5.55
2019-02-11T06:49:18.267Z,5.60
2019-02-11T06:51:48.123Z,5.37
2019-02-11T06:54:18.633Z,2.05
2019-02-11T06:56:48.034Z,4.75
2019-02-11T06:59:17.802Z,5.30
2019-02-11T07:01:47.831Z,5.65
2019-02-11T07:04:17.982Z,5.47
2019-02-11T07:06:48.567Z,4.10
2019-02-11T07:09:18.370Z,4.25
2019-02-11T07:11:48.202Z,5.55
2019-02-11T07:14:18.103Z,4.67
2019-02-11T07:16:48.305Z,4.72
2019-02-11T07:19:18.748Z,5.25
2019-02-11T07:21:48.589Z,4.47
2019-02-11T07:24:18.073Z,3.65
2019-02-11T07:26:48.290Z,5.05
2019-02-11T07:29:18.531Z,6.97
2019-02-11T07:31:48.631Z,4.78
2019-02-11T07:34:18.822Z,4.12
2019-02-11T07:36:49.077Z,5.53
2019-02-11T07:39:19.674Z,3.25
2019-02-11T07:42:13.969Z,9.50
2019-02-11T07:44:47.605Z,3.10
2019-02-11T07:47:18.350Z,3.47
2019-02-11T07:49:48.316Z,3.70
2019-02-11T07:52:18.209Z,6.47
2019-02-11T07:54:48.393Z,5.28
2019-02-11T07:57:18.952Z,4.80
2019-02-11T07:59:49.138Z,3.98
2019-02-11T08:02:18.627Z,6.45
2019-02-11T08:04:48.744Z,5.12
2019-02-11T08:07:18.655Z,5.40
2019-02-11T08:09:48.703Z,5.47
2019-02-11T08:12:18.959Z,3.67
2019-02-11T08:14:49.536Z,4.12
2019-02-11T08:17:20.149Z,5.60
2019-02-11T08:19:50.249Z,7.53
2019-02-11T08:22:20.886Z,5.97
2019-02-11T08:24:51.224Z,5.97
2019-02-11T08:27:21.083Z,7.90
2019-02-11T08:29:50.570Z,3.77
2019-02-11T08:32:21.051Z,4.83
2019-02-11T08:34:51.637Z,2.65
2019-02-11T08:37:21.863Z,12.93
2019-02-11T08:39:51.976Z,6.17
2019-02-11T08:42:22.753Z,6.97
2019-02-11T08:44:52.904Z,4.45
2019-02-11T08:47:23.368Z,6.75
2019-02-11T08:49:53.871Z,5.95
2019-02-11T08:52:24.041Z,5.08
2019-02-11T08:54:54.245Z,3.60
2019-02-11T08:57:24.478Z,5.33
2019-02-11T08:59:55.170Z,4.30
2019-02-11T09:02:25.346Z,6.10
2019-02-11T09:05:24.096Z,4.50
2019-02-11T09:07:54.312Z,6.75
2019-02-11T09:10:25.087Z,6.90
2019-02-11T09:12:54.871Z,5.37
2019-02-11T09:15:25.133Z,5.83
2019-02-11T09:17:57.512Z,3.72
2019-02-11T09:20:27.662Z,8.83
2019-02-11T09:22:57.826Z,4.28
2019-02-11T09:25:27.814Z,6.87
2019-02-11T09:27:57.246Z,7.83
2019-02-11T09:30:27.445Z,4.08
2019-02-11T09:32:59.595Z,5.08
2019-02-11T09:35:29.036Z,4.30
2019-02-11T09:37:59.345Z,4.35
2019-02-11T09:40:29.644Z,5.53
2019-02-11T09:43:00.658Z,4.85
2019-02-11T09:45:30.103Z,5.30
2019-02-11T09:48:00.563Z,3.60
2019-02-11T09:50:36.385Z,5.53
2019-02-11T09:53:07.206Z,4.28
2019-02-11T09:55:37.159Z,6.55
2019-02-11T09:58:07.159Z,3.65
2019-02-11T10:00:37.055Z,5.50
2019-02-11T10:03:07.362Z,4.50
2019-02-11T10:05:37.011Z,5.17
2019-02-11T10:08:07.087Z,4.50
2019-02-11T10:10:37.516Z,2.83
2019-02-11T10:13:06.967Z,4.60
2019-02-11T10:15:37.350Z,4.65
2019-02-11T10:18:07.588Z,6.75
2019-02-11T10:20:38.277Z,7.40
2019-02-11T10:23:08.486Z,8.18
2019-02-11T10:25:38.473Z,7.65
2019-02-11T10:28:10.576Z,3.62
2019-02-11T10:30:40.928Z,7.15
2019-02-11T10:33:11.154Z,5.90
2019-02-11T10:35:42.579Z,5.40
2019-02-11T10:38:13.495Z,12.18
2019-02-11T10:40:43.408Z,5.83
2019-02-11T10:43:14.112Z,4.00
2019-02-11T10:45:44.620Z,2.83
2019-02-11T10:48:15.298Z,4.30
2019-02-11T10:50:45.492Z,3.30
2019-02-11T10:53:15.882Z,3.92
2019-02-11T10:55:46.455Z,6.97
2019-02-11T10:58:16.686Z,5.35
2019-02-11T11:00:46.682Z,5.05
2019-02-11T11:03:16.579Z,4.33
2019-02-11T11:05:47.133Z,4.70
2019-02-11T11:08:18.184Z,5.08
2019-02-11T11:10:48.652Z,2.83
2019-02-11T11:13:18.861Z,4.87
2019-02-11T11:15:52.730Z,4.97
2019-02-11T11:18:22.987Z,6.05
2019-02-11T11:20:53.194Z,4.05
2019-02-11T11:23:22.978Z,6.37
2019-02-11T11:25:53.642Z,6.22
2019-02-11T11:28:42.688Z,5.40
2019-02-11T11:31:12.901Z,7.08
2019-02-11T11:33:43.011Z,6.42
2019-02-11T11:36:12.923Z,6.42
2019-02-11T11:38:43.204Z,3.22
2019-02-11T11:41:13.031Z,10.08
2019-02-11T11:43:43.172Z,3.90
2019-02-11T11:46:12.976Z,7.62
2019-02-11T11:48:42.814Z,4.10
2019-02-11T11:51:13.064Z,7.67
2019-02-11T11:53:43.303Z,4.12
2019-02-11T11:56:13.193Z,6.58
2019-02-11T11:58:43.473Z,4.60
2019-02-11T12:01:13.762Z,6.08
2019-02-11T12:03:43.658Z,7.30
2019-02-11T12:06:13.265Z,5.08
2019-02-11T12:08:43.487Z,4.60
2019-02-11T12:11:13.721Z,5.47
2019-02-11T12:13:44.055Z,4.65
2019-02-11T12:16:14.666Z,3.20
2019-02-11T12:18:45.218Z,9.60
2019-02-11T12:21:15.082Z,5.25
2019-02-11T12:23:45.383Z,5.58
2019-02-11T12:26:15.829Z,5.33
2019-02-11T12:28:45.868Z,4.83
2019-02-11T12:31:15.445Z,6.35
2019-02-11T12:33:45.407Z,6.87
2019-02-11T12:36:15.310Z,7.35
2019-02-11T12:38:45.324Z,6.00
2019-02-11T12:41:15.223Z,8.65
2019-02-11T12:43:46.982Z,8.05
2019-02-11T12:46:16.475Z,9.88
2019-02-11T12:48:46.388Z,10.00
2019-02-11T12:51:16.297Z,12.63
2019-02-11T12:53:46.158Z,8.70
2019-02-11T12:56:16.455Z,4.97
2019-02-11T12:58:46.401Z,5.92
2019-02-11T13:01:15.921Z,8.73
2019-02-11T13:03:46.017Z,7.58
2019-02-11T13:06:15.902Z,5.80
2019-02-11T13:08:45.800Z,9.25
2019-02-11T13:11:16.397Z,10.63
2019-02-11T13:13:46.578Z,6.28
2019-02-11T13:16:16.791Z,4.72
2019-02-11T13:18:46.632Z,6.83
2019-02-11T13:21:16.977Z,6.60
2019-02-11T13:23:47.489Z,6.25
2019-02-11T13:26:17.893Z,7.28
2019-02-11T13:28:48.124Z,5.92
2019-02-11T13:31:19.874Z,10.48
2019-02-11T13:33:49.367Z,6.22
2019-02-11T13:36:18.963Z,7.25
2019-02-11T13:38:49.247Z,6.47
2019-02-11T13:41:19.535Z,6.40
2019-02-11T13:43:52.342Z,8.93
2019-02-11T13:46:22.706Z,6.15
2019-02-11T13:48:53.433Z,8.73
2019-02-11T13:51:23.313Z,7.05
2019-02-11T13:53:52.833Z,8.83
2019-02-11T13:56:23.075Z,4.97
2019-02-11T13:58:52.986Z,6.80
2019-02-11T14:01:23.462Z,5.20
2019-02-11T14:03:54.158Z,5.33
2019-02-11T14:06:25.282Z,5.42
2019-02-11T14:08:55.850Z,7.62
2019-02-11T14:11:26.047Z,7.50
2019-02-11T14:14:02.452Z,6.50
2019-02-11T14:16:27.326Z,9.30
2019-02-11T14:18:59.299Z,9.65
2019-02-11T14:21:29.597Z,12.55
2019-02-11T14:23:59.813Z,4.87
2019-02-11T14:26:30.067Z,9.20
2019-02-11T14:29:00.489Z,10.10
2019-02-11T14:31:31.250Z,9.40
2019-02-11T14:34:02.697Z,7.25
2019-02-11T14:36:33.353Z,6.70
2019-02-11T14:39:04.904Z,7.25
2019-02-11T14:41:36.023Z,9.10
2019-02-11T14:44:05.976Z,7.20
2019-02-11T14:46:35.945Z,12.07
2019-02-11T14:49:05.608Z,8.20
2019-02-11T14:51:35.199Z,6.47
2019-02-11T14:54:05.064Z,7.42
2019-02-11T14:56:35.226Z,10.70
2019-02-11T14:59:06.442Z,6.72
2019-02-11T15:01:36.268Z,4.92
2019-02-11T15:04:06.159Z,12.63
2019-02-11T15:06:35.774Z,3.98
2019-02-11T15:09:05.866Z,10.15
2019-02-11T15:11:35.375Z,14.35
2019-02-11T15:14:05.607Z,12.28
2019-02-11T15:16:36.095Z,11.48
2019-02-11T15:19:06.449Z,7.62
2019-02-11T15:21:36.713Z,9.90
2019-02-11T15:24:07.217Z,15.15
2019-02-11T15:26:37.042Z,17.00
2019-02-11T15:29:07.279Z,41.40
2019-02-11T15:31:37.475Z,11.20
2019-02-11T15:34:08.780Z,9.20
2019-02-11T15:36:39.980Z,3.77
2019-02-11T15:39:10.276Z,9.40
2019-02-11T15:41:40.589Z,8.95
2019-02-11T15:44:10.170Z,9.95
2019-02-11T15:46:40.442Z,7.75
2019-02-11T15:49:09.973Z,6.20
2019-02-11T15:51:39.107Z,7.97
2019-02-11T15:54:09.428Z,5.95
2019-02-11T15:56:38.974Z,6.42
2019-02-11T15:59:09.239Z,6.85
2019-02-11T16:01:39.896Z,19.55
2019-02-11T16:04:09.836Z,7.95
2019-02-11T16:06:39.773Z,6.10
2019-02-11T16:09:09.660Z,8.00
2019-02-11T16:11:40.147Z,5.22
2019-02-11T16:14:10.026Z,8.68
2019-02-11T16:16:39.382Z,6.95
2019-02-11T16:19:09.597Z,9.83
2019-02-11T16:21:40.147Z,6.37
2019-02-11T16:24:10.038Z,8.90
2019-02-11T16:26:40.716Z,7.35
2019-02-11T16:29:11.044Z,5.12
2019-02-11T16:31:40.628Z,9.20
2019-02-11T16:34:10.848Z,7.50
2019-02-11T16:36:41.052Z,5.20
2019-02-11T16:39:11.714Z,9.25
2019-02-11T16:41:42.021Z,3.10
2019-02-11T16:44:12.370Z,10.32
2019-02-11T16:46:42.526Z,4.60
2019-02-11T16:49:12.290Z,5.70
2019-02-11T16:51:42.097Z,10.15
2019-02-11T16:54:11.921Z,9.70
2019-02-11T16:56:42.174Z,6.35
2019-02-11T16:59:12.423Z,6.90
2019-02-11T17:01:42.673Z,4.67
2019-02-11T17:04:12.659Z,7.47
2019-02-11T17:06:42.769Z,5.87
2019-02-11T17:09:12.895Z,5.53
2019-02-11T17:11:43.344Z,6.15
2019-02-11T17:14:17.112Z,7.20
2019-02-11T17:16:47.044Z,5.00
2019-02-11T17:19:17.377Z,10.00
2019-02-11T17:21:47.860Z,8.85
2019-02-11T17:24:18.377Z,5.00
2019-02-11T17:28:00.565Z,5.72
2019-02-11T17:33:50.260Z,4.95
2019-02-11T17:36:20.784Z,4.62
2019-02-11T17:41:50.864Z,12.88
2019-02-11T17:44:20.663Z,6.05
2019-02-11T17:46:50.184Z,4.53
2019-02-11T17:49:19.707Z,5.87
2019-02-11T17:51:50.124Z,11.63
2019-02-11T17:54:20.097Z,14.10
2019-02-11T17:56:50.450Z,26.23
2019-02-11T17:59:20.433Z,14.45
2019-02-11T18:01:50.440Z,23.42
2019-02-11T18:04:20.668Z,6.53
2019-02-11T18:10:42.441Z,8.50
2019-02-11T18:13:31.677Z,8.80
2019-02-11T18:16:01.970Z,7.08
2019-02-11T18:18:32.102Z,5.37
2019-02-11T18:21:02.366Z,5.22
2019-02-11T18:23:31.832Z,9.58
2019-02-11T18:26:03.302Z,12.93
2019-02-11T18:28:33.697Z,9.23
2019-02-11T18:31:22.816Z,14.43
2019-02-11T18:34:16.383Z,8.68
2019-02-11T18:36:46.945Z,8.53
2019-02-11T18:40:08.826Z,18.75
2019-02-11T18:42:38.672Z,14.05
2019-02-11T18:45:10.308Z,13.43
2019-02-11T18:49:06.318Z,16.30
2019-02-11T18:51:37.167Z,13.22
2019-02-11T18:54:07.182Z,17.73
2019-02-11T18:56:37.356Z,11.30
2019-02-11T18:59:07.352Z,10.30
2019-02-11T19:01:37.569Z,9.88
2019-02-11T19:04:07.896Z,10.95
2019-02-11T19:06:38.506Z,10.00
2019-02-11T19:09:13.224Z,7.87
2019-02-11T19:11:43.457Z,8.65
2019-02-11T19:14:14.037Z,8.45
2019-02-11T19:16:44.009Z,11.38
2019-02-11T19:19:14.025Z,13.75
2019-02-11T19:21:44.667Z,11.45
2019-02-11T19:24:14.845Z,14.07
2019-02-11T19:26:45.196Z,8.00
2019-02-11T19:29:15.865Z,10.53
2019-02-11T19:31:46.117Z,8.95
2019-02-11T19:34:16.260Z,6.35
2019-02-11T19:36:46.212Z,6.55
2019-02-11T19:39:16.775Z,10.60
2019-02-11T19:41:47.440Z,10.58
2019-02-11T19:44:18.023Z,11.50
2019-02-11T19:46:47.984Z,10.55
2019-02-11T19:49:17.953Z,10.58
2019-02-11T19:51:48.259Z,14.10
2019-02-11T19:54:18.567Z,12.88
2019-02-11T19:56:49.243Z,11.68
2019-02-11T19:59:19.540Z,11.38
2019-02-11T20:01:49.311Z,14.03
2019-02-11T20:04:21.158Z,13.78
2019-02-11T20:06:51.561Z,11.70
2019-02-11T20:09:21.946Z,8.15
2019-02-11T20:11:56.979Z,13.62
2019-02-11T20:14:53.678Z,7.05
2019-02-11T20:17:03.372Z,7.45
2019-02-11T20:19:32.968Z,8.60
2019-02-11T20:22:03.198Z,8.80
2019-02-11T20:24:33.415Z,8.10
2019-02-11T20:27:04.618Z,7.90
2019-02-11T20:29:34.489Z,8.95
2019-02-11T20:32:04.468Z,10.68
2019-02-11T20:34:34.735Z,9.65
2019-02-11T20:37:04.934Z,8.30
2019-02-11T20:39:34.881Z,8.38
2019-02-11T20:42:04.504Z,8.30
2019-02-11T20:44:34.359Z,9.75
2019-02-11T20:47:05.008Z,11.68
2019-02-11T20:49:35.729Z,10.30
2019-02-11T20:52:06.066Z,8.48
2019-02-11T20:54:35.973Z,18.10
2019-02-11T20:57:06.124Z,11.95
2019-02-11T20:59:35.795Z,8.13
2019-02-11T21:02:06.067Z,9.45
2019-02-11T21:04:36.038Z,9.95
2019-02-11T21:07:06.370Z,10.70
2019-02-11T21:09:37.005Z,7.72
2019-02-11T21:12:08.807Z,11.40
2019-02-11T21:14:53.892Z,7.78
2019-02-11T21:17:26.518Z,14.58
2019-02-11T21:20:00.373Z,14.25
2019-02-11T21:22:30.682Z,9.03
2019-02-11T21:25:18.877Z,10.03
2019-02-11T21:27:49.817Z,13.40
2019-02-11T21:30:20.526Z,7.58
2019-02-11T21:32:50.374Z,7.12
2019-02-11T21:35:20.276Z,7.35
2019-02-11T21:37:51.326Z,8.93
2019-02-11T21:40:21.561Z,9.30
2019-02-11T21:42:51.918Z,9.25
2019-02-11T21:45:23.242Z,10.68
2019-02-11T21:47:53.854Z,8.73
2019-02-11T21:50:26.828Z,9.68
2019-02-11T21:52:57.235Z,10.60
2019-02-11T21:55:27.489Z,5.12
2019-02-11T21:57:58.418Z,14.07
2019-02-11T22:00:28.031Z,13.93
2019-02-11T22:03:00.939Z,12.05
2019-02-11T22:05:31.214Z,10.88
2019-02-11T22:08:01.900Z,8.93
2019-02-11T22:10:32.546Z,12.58
2019-02-11T22:13:02.327Z,9.35
2019-02-11T22:15:32.405Z,8.85
2019-02-11T22:18:02.583Z,10.45
2019-02-11T22:20:34.782Z,11.45
2019-02-11T22:23:04.002Z,12.15
2019-02-11T22:25:52.972Z,9.83
2019-02-11T22:28:22.875Z,13.83
2019-02-11T22:30:53.075Z,13.88
2019-02-11T22:33:24.017Z,11.20
2019-02-11T22:35:53.548Z,11.73
2019-02-11T22:38:23.683Z,9.10
2019-02-11T22:40:56.134Z,9.75
2019-02-11T22:43:25.743Z,12.33
2019-02-11T22:45:55.843Z,11.03
2019-02-11T22:48:31.528Z,11.20
2019-02-11T22:51:01.719Z,11.63
2019-02-11T22:53:31.952Z,10.45
2019-02-11T22:56:12.467Z,12.05
2019-02-11T22:58:42.435Z,9.85
2019-02-11T23:01:12.373Z,9.23
2019-02-11T23:03:42.688Z,8.60
2019-02-11T23:06:12.509Z,8.35
2019-02-11T23:08:42.400Z,13.48
2019-02-11T23:11:12.265Z,9.60
2019-02-11T23:13:41.730Z,10.50
2019-02-11T23:16:11.269Z,10.03
2019-02-11T23:18:41.888Z,7.80
2019-02-11T23:21:12.234Z,8.43
2019-02-11T23:23:42.403Z,12.65
2019-02-11T23:26:12.664Z,5.60
2019-02-11T23:28:43.267Z,8.10
2019-02-11T23:31:13.457Z,8.35
2019-02-11T23:33:43.610Z,4.28
2019-02-11T23:36:13.403Z,11.60
2019-02-11T23:38:43.635Z,7.90
2019-02-11T23:41:13.458Z,12.78
2019-02-11T23:43:43.353Z,8.83
2019-02-11T23:46:13.917Z,12.23
2019-02-11T23:48:43.417Z,11.20
2019-02-11T23:51:13.776Z,8.70
2019-02-11T23:53:43.629Z,7.50
2019-02-11T23:56:13.435Z,12.43
2019-02-11T23:58:43.594Z,11.18
